Time;durP1;ratioP1;P1;durP2;ratioP2;P2;SDS_P1;SDS_P2;PMS_P1;PMS_P2;Temp;Humidity;BMP_temperature;BMP_pressure;BME280_temperature;BME280_humidity;BME280_pressure;Samples;Min_cycle;Max_cycle;Signal;HPM_P1;HPM_P2
2023/12/18 00:00:25;;;;;;;;;;;26.40;99.90;;;;;;4966037;28;20001;-69
2023/12/18 00:02:51;;;;;;;;;;;26.50;99.90;;;;;;4963303;28;20355;-67
2023/12/18 00:05:18;;;;;;;;;;;26.40;99.90;;;;;;4967407;28;20028;-70
2023/12/18 00:07:45;;;;;;;;;;;26.30;99.90;;;;;;4970182;28;20408;-67
2023/12/18 00:10:11;;;;;;;;;;;26.40;99.90;;;;;;4970227;28;19965;-76
2023/12/18 00:12:38;;;;;;;;;;;26.40;99.90;;;;;;4969799;28;19910;-68
2023/12/18 00:15:06;;;;;;;;;;;26.60;99.90;;;;;;4969026;28;19910;-69
2023/12/18 00:17:33;;;;;;;;;;;26.70;99.90;;;;;;4964640;28;19953;-67
2023/12/18 00:20:00;;;;;;;;;;;26.90;99.90;;;;;;4964312;28;19940;-66
2023/12/18 00:22:27;;;;;;;;;;;26.90;99.90;;;;;;4963716;28;19984;-67
2023/12/18 00:24:53;;;;;;;;;;;27.00;99.90;;;;;;4970237;28;19910;-67
2023/12/18 00:27:20;;;;;;;;;;;27.20;99.90;;;;;;4961879;28;19929;-68
2023/12/18 00:29:47;;;;;;;;;;;27.30;99.90;;;;;;4964714;28;19922;-68
2023/12/18 00:32:13;;;;;;;;;;;27.70;99.90;;;;;;4966214;28;19950;-67
2023/12/18 00:34:43;;;;;;;;;;;27.90;99.90;;;;;;4950892;28;20005;-71
2023/12/18 00:37:10;;;;;;;;;;;28.10;99.90;;;;;;4969088;28;19934;-69
2023/12/18 00:39:36;;;;;;;;;;;28.00;99.90;;;;;;4975971;28;19914;-69
2023/12/18 00:42:04;;;;;;;;;;;28.30;99.90;;;;;;4968974;28;19914;-72
2023/12/18 00:44:30;;;;;;;;;;;28.40;99.90;;;;;;4966436;28;19920;-75
2023/12/18 00:46:57;;;;;;;;;;;28.40;99.90;;;;;;4963381;28;19952;-72
2023/12/18 00:49:27;;;;;;;;;;;28.60;99.90;;;;;;4965209;28;20371;-70
2023/12/18 00:51:54;;;;;;;;;;;28.70;99.90;;;;;;4967890;28;19964;-75
2023/12/18 00:54:20;;;;;;;;;;;28.60;99.90;;;;;;4967075;28;19954;-71
2023/12/18 00:56:47;;;;;;;;;;;28.80;99.90;;;;;;4964544;28;19919;-76
2023/12/18 00:59:14;;;;;;;;;;;28.80;99.90;;;;;;4982925;28;19921;-71
2023/12/18 01:01:42;;;;;;;;;;;28.90;99.90;;;;;;4971936;28;19918;-69
2023/12/18 01:04:08;;;;;;;;;;;29.20;99.90;;;;;;4969423;28;19915;-67
2023/12/18 01:06:35;;;;;;;;;;;29.50;99.90;;;;;;4965627;28;19922;-68
2023/12/18 01:09:02;;;;;;;;;;;29.80;99.90;;;;;;4963375;28;20001;-70
2023/12/18 01:11:29;;;;;;;;;;;30.00;99.90;;;;;;4970334;28;19976;-69
2023/12/18 01:13:55;;;;;;;;;;;30.10;99.90;;;;;;4972103;28;19993;-71
2023/12/18 01:16:22;;;;;;;;;;;30.30;99.90;;;;;;4972484;28;19960;-69
2023/12/18 01:18:49;;;;;;;;;;;30.60;99.90;;;;;;4971334;28;19920;-69
2023/12/18 01:21:15;;;;;;;;;;;31.00;99.90;;;;;;4971868;28;19959;-69
2023/12/18 01:23:42;;;;;;;;;;;30.80;99.90;;;;;;4960467;28;19969;-71
2023/12/18 01:26:08;;;;;;;;;;;30.40;99.90;;;;;;4953541;28;19914;-69
2023/12/18 01:28:35;;;;;;;;;;;30.40;99.90;;;;;;4969875;28;20004;-70
2023/12/18 01:31:02;;;;;;;;;;;30.20;99.90;;;;;;4971576;28;19914;-69
2023/12/18 01:33:29;;;;;;;;;;;30.00;99.90;;;;;;4972555;28;19968;-72
2023/12/18 01:35:55;;;;;;;;;;;30.00;99.90;;;;;;4972801;28;20350;-70
2023/12/18 01:38:22;;;;;;;;;;;30.00;99.90;;;;;;4972232;28;19998;-70
2023/12/18 01:40:48;;;;;;;;;;;29.70;99.90;;;;;;4964273;28;19941;-71
2023/12/18 01:43:27;;;;;;;;;;;29.50;99.90;;;;;;4959225;28;19918;-72
2023/12/18 01:45:55;;;;;;;;;;;29.40;99.90;;;;;;4967059;28;19918;-70
2023/12/18 01:48:22;;;;;;;;;;;29.30;99.90;;;;;;4972481;28;19914;-71
2023/12/18 01:50:49;;;;;;;;;;;29.20;99.90;;;;;;4971947;28;19925;-71
2023/12/18 01:53:16;;;;;;;;;;;29.40;99.90;;;;;;4971458;28;19954;-69
2023/12/18 01:55:42;;;;;;;;;;;29.60;99.90;;;;;;5005874;28;19913;-71
2023/12/18 01:58:10;;;;;;;;;;;29.90;99.90;;;;;;5072820;28;20361;-70
2023/12/18 02:00:36;;;;;;;;;;;30.10;99.90;;;;;;5073998;28;19908;-70
2023/12/18 02:03:03;;;;;;;;;;;30.10;99.90;;;;;;5000086;28;19918;-68
2023/12/18 02:05:30;;;;;;;;;;;30.30;99.90;;;;;;4971395;28;20000;-71
2023/12/18 02:07:57;;;;;;;;;;;30.50;99.90;;;;;;4971805;28;20367;-71
2023/12/18 02:10:24;;;;;;;;;;;30.80;99.90;;;;;;4972150;28;19945;-72
2023/12/18 02:12:51;;;;;;;;;;;31.00;99.90;;;;;;4971253;28;19910;-72
2023/12/18 02:15:17;;;;;;;;;;;31.10;99.90;;;;;;4971935;28;20039;-73
2023/12/18 02:17:44;;;;;;;;;;;31.10;99.90;;;;;;4971589;28;19949;-70
2023/12/18 02:20:11;;;;;;;;;;;31.40;99.90;;;;;;4972426;28;20355;-69
2023/12/18 02:22:46;;;;;;;;;;;30.90;99.90;;;;;;4970725;28;19922;-70
2023/12/18 02:25:13;;;;;;;;;;;31.20;99.90;;;;;;4968898;28;20371;-73
2023/12/18 02:27:40;;;;;;;;;;;31.50;99.90;;;;;;4952170;28;20378;-70
2023/12/18 02:30:07;;;;;;;;;;;31.10;99.90;;;;;;4961816;28;20289;-68
2023/12/18 02:32:36;;;;;;;;;;;30.50;99.90;;;;;;4971345;28;19910;-72
2023/12/18 02:35:02;;;;;;;;;;;30.30;99.90;;;;;;5060396;28;19935;-70
2023/12/18 02:37:29;;;;;;;;;;;30.50;99.90;;;;;;5072648;28;19915;-70
2023/12/18 02:39:56;;;;;;;;;;;30.70;99.90;;;;;;5021352;28;19914;-72
2023/12/18 02:42:22;;;;;;;;;;;31.10;99.90;;;;;;4971680;28;19907;-72
2023/12/18 02:44:49;;;;;;;;;;;31.60;99.90;;;;;;4971118;28;19921;-69
2023/12/18 02:47:15;;;;;;;;;;;31.90;99.90;;;;;;4971389;28;19914;-74
2023/12/18 02:49:43;;;;;;;;;;;32.00;99.60;;;;;;4968998;28;20005;-69
2023/12/18 02:52:10;;;;;;;;;;;32.30;99.10;;;;;;4971124;28;20310;-72
2023/12/18 02:54:37;;;;;;;;;;;32.00;98.90;;;;;;4971587;28;19960;-69
2023/12/18 02:57:04;;;;;;;;;;;31.60;99.40;;;;;;4969991;28;19961;-70
2023/12/18 02:59:31;;;;;;;;;;;31.90;99.90;;;;;;4962810;28;19914;-70
2023/12/18 03:01:57;;;;;;;;;;;32.40;99.20;;;;;;4965742;28;19914;-70
2023/12/18 03:04:24;;;;;;;;;;;33.00;98.10;;;;;;4970904;28;19917;-69
2023/12/18 03:06:51;;;;;;;;;;;33.40;97.00;;;;;;4970557;28;19933;-70
2023/12/18 03:09:18;;;;;;;;;;;33.40;97.20;;;;;;4968246;28;19922;-73
2023/12/18 03:11:44;;;;;;;;;;;33.80;96.90;;;;;;4970807;28;19910;-70
2023/12/18 03:14:11;;;;;;;;;;;33.70;96.00;;;;;;4971199;28;19917;-69
2023/12/18 03:16:38;;;;;;;;;;;33.60;97.00;;;;;;4970479;28;19918;-70
2023/12/18 03:19:04;;;;;;;;;;;34.90;95.50;;;;;;4958940;28;19961;-70
2023/12/18 03:21:31;;;;;;;;;;;35.30;94.20;;;;;;4969541;28;19922;-70
2023/12/18 03:23:58;;;;;;;;;;;36.10;94.30;;;;;;4965034;28;19914;-69
2023/12/18 03:26:24;;;;;;;;;;;36.80;93.30;;;;;;4951647;28;19918;-71
2023/12/18 03:28:51;;;;;;;;;;;36.80;92.00;;;;;;4958944;28;19921;-70
2023/12/18 03:31:18;;;;;;;;;;;37.00;91.80;;;;;;4971013;28;20413;-74
2023/12/18 03:33:44;;;;;;;;;;;37.60;91.10;;;;;;4970096;28;20053;-70
2023/12/18 03:36:11;;;;;;;;;;;37.30;90.40;;;;;;4970157;28;19997;-69
2023/12/18 03:38:37;;;;;;;;;;;37.80;90.40;;;;;;4970711;28;19910;-70
2023/12/18 03:41:04;;;;;;;;;;;38.90;88.50;;;;;;4970443;28;20434;-68
2023/12/18 03:43:31;;;;;;;;;;;39.30;85.70;;;;;;4967747;28;19914;-69
2023/12/18 03:45:57;;;;;;;;;;;39.40;84.20;;;;;;4960717;28;19922;-69
2023/12/18 03:48:24;;;;;;;;;;;38.90;85.10;;;;;;4962559;28;19915;-71
2023/12/18 03:50:50;;;;;;;;;;;39.50;83.80;;;;;;4964036;28;19945;-70
2023/12/18 03:53:17;;;;;;;;;;;40.00;83.70;;;;;;4968564;28;19916;-69
2023/12/18 03:55:44;;;;;;;;;;;39.50;82.30;;;;;;4967004;28;19929;-70
2023/12/18 03:58:10;;;;;;;;;;;40.00;81.80;;;;;;4969622;28;19996;-73
2023/12/18 04:00:37;;;;;;;;;;;40.00;81.30;;;;;;4970324;28;20359;-71
2023/12/18 04:03:04;;;;;;;;;;;39.40;81.70;;;;;;4969841;28;19921;-69
2023/12/18 04:05:31;;;;;;;;;;;39.50;82.90;;;;;;4970580;28;19917;-68
2023/12/18 04:07:57;;;;;;;;;;;40.40;81.90;;;;;;4969542;28;20009;-75
2023/12/18 04:10:24;;;;;;;;;;;39.90;81.20;;;;;;4969204;28;20435;-69
2023/12/18 04:12:51;;;;;;;;;;;39.80;81.90;;;;;;4969563;28;20255;-68
2023/12/18 04:15:18;;;;;;;;;;;40.10;81.00;;;;;;4969781;28;19921;-69
2023/12/18 04:17:44;;;;;;;;;;;39.50;81.30;;;;;;4969939;28;19976;-74
2023/12/18 04:20:11;;;;;;;;;;;38.90;83.50;;;;;;4965050;28;19961;-70
2023/12/18 04:22:38;;;;;;;;;;;39.90;80.30;;;;;;4961405;28;19945;-68
2023/12/18 04:25:05;;;;;;;;;;;40.10;80.60;;;;;;4970049;28;20574;-69
2023/12/18 04:27:31;;;;;;;;;;;40.10;80.00;;;;;;4973380;28;19910;-68
2023/12/18 04:29:58;;;;;;;;;;;39.10;80.70;;;;;;4962526;28;19930;-69
2023/12/18 04:32:26;;;;;;;;;;;39.30;80.70;;;;;;4962553;28;19910;-69
2023/12/18 04:34:53;;;;;;;;;;;39.30;81.40;;;;;;4972859;28;19995;-67
2023/12/18 04:37:19;;;;;;;;;;;39.50;81.50;;;;;;4973617;28;20354;-69
2023/12/18 04:39:46;;;;;;;;;;;39.10;80.80;;;;;;4972656;28;19911;-69
2023/12/18 04:42:12;;;;;;;;;;;39.20;82.00;;;;;;4972301;28;20371;-70
2023/12/18 04:44:39;;;;;;;;;;;39.50;80.90;;;;;;4971612;28;20005;-70
2023/12/18 04:47:06;;;;;;;;;;;40.10;79.60;;;;;;4973302;28;19910;-69
2023/12/18 04:49:32;;;;;;;;;;;40.20;78.80;;;;;;4967578;28;19923;-69
2023/12/18 04:51:59;;;;;;;;;;;39.80;79.90;;;;;;4965238;28;19925;-69
2023/12/18 04:54:26;;;;;;;;;;;39.50;79.40;;;;;;4965785;28;19953;-69
2023/12/18 04:56:53;;;;;;;;;;;39.20;81.20;;;;;;4963993;28;20005;-70
2023/12/18 04:59:19;;;;;;;;;;;39.40;80.60;;;;;;4976129;28;19918;-73
2023/12/18 05:01:47;;;;;;;;;;;39.20;80.90;;;;;;4958825;28;20031;-70
2023/12/18 05:04:14;;;;;;;;;;;38.30;83.10;;;;;;4983767;28;19957;-70
2023/12/18 05:06:41;;;;;;;;;;;38.80;82.30;;;;;;4968428;28;20324;-69
2023/12/18 05:09:07;;;;;;;;;;;38.40;83.10;;;;;;4971905;28;19921;-72
2023/12/18 05:11:34;;;;;;;;;;;38.20;82.70;;;;;;4956344;28;20380;-70
2023/12/18 05:14:01;;;;;;;;;;;38.10;83.00;;;;;;4966865;28;19918;-70
2023/12/18 05:16:27;;;;;;;;;;;38.00;82.40;;;;;;4963047;28;20005;-72
2023/12/18 05:18:54;;;;;;;;;;;37.60;83.40;;;;;;4962438;28;19911;-69
2023/12/18 05:21:20;;;;;;;;;;;36.70;84.80;;;;;;4962814;28;19926;-70
2023/12/18 05:23:49;;;;;;;;;;;36.40;86.40;;;;;;4963137;28;19925;-70
2023/12/18 05:26:16;;;;;;;;;;;36.10;86.80;;;;;;4956164;28;19922;-72
2023/12/18 05:28:42;;;;;;;;;;;35.80;88.40;;;;;;4956240;28;19964;-70
2023/12/18 05:31:10;;;;;;;;;;;35.30;89.50;;;;;;4958897;28;19926;-70
2023/12/18 05:33:36;;;;;;;;;;;35.00;90.00;;;;;;4961779;28;19910;-70
2023/12/18 05:36:03;;;;;;;;;;;34.90;90.40;;;;;;4966186;28;19945;-71
2023/12/18 05:38:30;;;;;;;;;;;34.70;90.60;;;;;;4963195;28;20305;-69
2023/12/18 05:40:56;;;;;;;;;;;34.90;90.40;;;;;;4963428;28;19914;-70
2023/12/18 05:43:23;;;;;;;;;;;34.70;90.90;;;;;;4973038;28;19915;-70
2023/12/18 05:45:50;;;;;;;;;;;34.70;91.30;;;;;;4975391;28;19925;-70
2023/12/18 05:48:16;;;;;;;;;;;34.30;91.40;;;;;;4963574;28;20176;-71
2023/12/18 05:50:43;;;;;;;;;;;34.10;91.70;;;;;;4962821;28;19930;-70
2023/12/18 05:53:10;;;;;;;;;;;33.90;91.80;;;;;;4965869;28;19918;-69
2023/12/18 05:55:36;;;;;;;;;;;33.40;92.80;;;;;;4962227;28;19918;-70
2023/12/18 05:58:03;;;;;;;;;;;33.00;93.40;;;;;;4962647;28;19910;-70
2023/12/18 06:00:30;;;;;;;;;;;32.60;94.20;;;;;;4960831;28;20286;-71
2023/12/18 06:02:56;;;;;;;;;;;32.20;94.30;;;;;;4965162;28;19914;-70
2023/12/18 06:05:23;;;;;;;;;;;31.90;95.00;;;;;;4964566;28;19915;-71
2023/12/18 06:07:49;;;;;;;;;;;31.50;95.50;;;;;;4964412;28;19918;-72
2023/12/18 06:10:16;;;;;;;;;;;30.90;96.80;;;;;;4964404;28;19922;-73
2023/12/18 06:12:43;;;;;;;;;;;30.80;97.40;;;;;;4962240;28;19910;-71
2023/12/18 06:15:10;;;;;;;;;;;30.90;97.60;;;;;;4964196;28;20366;-72
2023/12/18 06:17:36;;;;;;;;;;;31.00;98.10;;;;;;4962279;28;20295;-71
2023/12/18 06:20:05;;;;;;;;;;;30.90;97.80;;;;;;4969981;28;19919;-73
2023/12/18 06:22:32;;;;;;;;;;;30.70;98.60;;;;;;4965253;28;20016;-76
2023/12/18 06:25:00;;;;;;;;;;;30.90;98.50;;;;;;4973750;28;20387;-70
2023/12/18 06:27:26;;;;;;;;;;;30.80;98.60;;;;;;4966889;28;19953;-71
2023/12/18 06:29:53;;;;;;;;;;;30.80;98.30;;;;;;4961846;28;20278;-70
2023/12/18 06:32:19;;;;;;;;;;;30.90;98.60;;;;;;4985478;28;20015;-70
2023/12/18 06:34:46;;;;;;;;;;;31.20;98.10;;;;;;4977728;28;20054;-70
2023/12/18 06:37:13;;;;;;;;;;;31.20;98.20;;;;;;4960720;28;20372;-69
2023/12/18 06:39:40;;;;;;;;;;;31.20;98.10;;;;;;4964329;28;19976;-70
2023/12/18 06:42:06;;;;;;;;;;;31.20;98.30;;;;;;4966816;28;20017;-71
2023/12/18 06:44:33;;;;;;;;;;;31.20;98.60;;;;;;4963706;28;19910;-72
2023/12/18 06:47:00;;;;;;;;;;;30.80;98.70;;;;;;4978419;28;19910;-73
2023/12/18 06:49:26;;;;;;;;;;;30.30;99.40;;;;;;4960330;28;20446;-71
2023/12/18 06:51:53;;;;;;;;;;;30.10;99.90;;;;;;4959438;28;20276;-73
2023/12/18 06:54:19;;;;;;;;;;;29.80;99.90;;;;;;4976637;28;19944;-72
2023/12/18 06:56:46;;;;;;;;;;;29.70;99.90;;;;;;4963457;28;19984;-75
2023/12/18 06:59:13;;;;;;;;;;;29.60;99.90;;;;;;4960913;28;19963;-71
2023/12/18 07:01:39;;;;;;;;;;;29.40;99.90;;;;;;4968938;28;20350;-71
2023/12/18 07:04:06;;;;;;;;;;;29.30;99.90;;;;;;4970677;28;19915;-69
2023/12/18 07:06:33;;;;;;;;;;;29.20;99.90;;;;;;4965283;28;20301;-70
2023/12/18 07:09:00;;;;;;;;;;;29.00;99.90;;;;;;4962426;28;19917;-70
2023/12/18 07:11:26;;;;;;;;;;;28.70;99.90;;;;;;4961589;28;19916;-70
2023/12/18 07:13:53;;;;;;;;;;;28.60;99.90;;;;;;4976535;28;19918;-71
2023/12/18 07:16:21;;;;;;;;;;;28.50;99.90;;;;;;4969344;28;19940;-71
2023/12/18 07:18:47;;;;;;;;;;;28.60;99.90;;;;;;4971715;28;20013;-70
2023/12/18 07:21:14;;;;;;;;;;;28.50;99.90;;;;;;4976409;28;19908;-70
2023/12/18 07:23:42;;;;;;;;;;;28.40;99.90;;;;;;4961144;28;19910;-76
2023/12/18 07:26:12;;;;;;;;;;;28.40;99.90;;;;;;4974894;28;20640;-72
2023/12/18 07:28:39;;;;;;;;;;;28.50;99.90;;;;;;4961354;28;19910;-69
2023/12/18 07:31:06;;;;;;;;;;;28.50;99.90;;;;;;4961849;28;19923;-70
2023/12/18 07:33:33;;;;;;;;;;;28.80;99.90;;;;;;4959764;28;19914;-76
2023/12/18 07:35:59;;;;;;;;;;;29.10;99.90;;;;;;4964988;28;19918;-69
2023/12/18 07:38:26;;;;;;;;;;;29.30;99.90;;;;;;4963423;28;19937;-69
2023/12/18 07:40:52;;;;;;;;;;;29.10;99.90;;;;;;4962525;28;19974;-68
2023/12/18 07:43:19;;;;;;;;;;;29.10;99.90;;;;;;4960062;28;19992;-68
2023/12/18 07:45:46;;;;;;;;;;;29.10;99.90;;;;;;4964804;28;19975;-77
2023/12/18 07:48:12;;;;;;;;;;;29.00;99.90;;;;;;4960166;28;19964;-68
2023/12/18 07:50:39;;;;;;;;;;;28.80;99.90;;;;;;4958390;28;19926;-70
2023/12/18 07:53:06;;;;;;;;;;;28.80;99.90;;;;;;4951452;28;20013;-69
2023/12/18 07:55:33;;;;;;;;;;;28.60;99.90;;;;;;4964445;28;19961;-69
2023/12/18 07:57:59;;;;;;;;;;;28.60;99.90;;;;;;4964689;28;20012;-69
2023/12/18 08:00:26;;;;;;;;;;;28.30;99.90;;;;;;4963668;28;19920;-70
2023/12/18 08:02:56;;;;;;;;;;;28.20;99.90;;;;;;5004755;28;20274;-70
2023/12/18 08:05:23;;;;;;;;;;;28.10;99.90;;;;;;4965183;28;19922;-68
2023/12/18 08:07:50;;;;;;;;;;;28.10;99.90;;;;;;4960879;28;20025;-70
2023/12/18 08:10:16;;;;;;;;;;;28.10;99.90;;;;;;4960971;28;19937;-68
2023/12/18 08:12:43;;;;;;;;;;;27.90;99.90;;;;;;4961365;28;19915;-79
2023/12/18 08:15:10;;;;;;;;;;;28.00;99.90;;;;;;4961819;28;19921;-69
2023/12/18 08:17:42;;;;;;;;;;;28.00;99.90;;;;;;4964532;28;19910;-74
2023/12/18 08:20:09;;;;;;;;;;;28.00;99.90;;;;;;4963314;28;19937;-75
2023/12/18 08:22:38;;;;;;;;;;;27.80;99.90;;;;;;4961756;28;20295;-75
2023/12/18 08:25:06;;;;;;;;;;;27.70;99.90;;;;;;4973586;28;19983;-74
2023/12/18 08:27:34;;;;;;;;;;;27.60;99.90;;;;;;4959912;28;19910;-74
2023/12/18 08:30:02;;;;;;;;;;;27.50;99.90;;;;;;4959657;28;19930;-72
2023/12/18 08:32:29;;;;;;;;;;;27.50;99.90;;;;;;4965847;28;19921;-69
2023/12/18 08:35:00;;;;;;;;;;;27.40;99.90;;;;;;4956664;28;19914;-82
2023/12/18 08:37:27;;;;;;;;;;;27.30;99.90;;;;;;4957363;28;19918;-70
2023/12/18 08:39:54;;;;;;;;;;;27.40;99.90;;;;;;4956763;28;19914;-71
2023/12/18 08:42:22;;;;;;;;;;;27.40;99.90;;;;;;4959640;28;20405;-71
2023/12/18 08:44:49;;;;;;;;;;;27.40;99.90;;;;;;4976140;28;19952;-71
2023/12/18 08:47:16;;;;;;;;;;;27.40;99.90;;;;;;4964090;28;20427;-70
2023/12/18 08:49:42;;;;;;;;;;;27.50;99.90;;;;;;4958554;28;19957;-69
2023/12/18 08:52:09;;;;;;;;;;;27.50;99.90;;;;;;4958207;28;19910;-70
2023/12/18 08:54:36;;;;;;;;;;;27.40;99.90;;;;;;4966129;28;19976;-70
2023/12/18 08:57:03;;;;;;;;;;;27.30;99.90;;;;;;4963073;28;19915;-70
2023/12/18 08:59:29;;;;;;;;;;;27.30;99.90;;;;;;4968893;28;19918;-69
2023/12/18 09:01:56;;;;;;;;;;;27.30;99.90;;;;;;4963924;28;19914;-69
2023/12/18 09:04:22;;;;;;;;;;;27.20;99.90;;;;;;4963978;28;20004;-69
2023/12/18 09:06:49;;;;;;;;;;;27.20;99.90;;;;;;4969415;28;19997;-70
2023/12/18 09:09:16;;;;;;;;;;;27.10;99.90;;;;;;4973280;28;19926;-69
2023/12/18 09:11:42;;;;;;;;;;;27.10;99.90;;;;;;4973797;28;19957;-69
2023/12/18 09:14:09;;;;;;;;;;;27.00;99.90;;;;;;4973868;28;20005;-70
2023/12/18 09:16:36;;;;;;;;;;;26.80;99.90;;;;;;4973720;28;19910;-71
2023/12/18 09:19:02;;;;;;;;;;;26.80;99.90;;;;;;4973017;28;19914;-74
2023/12/18 09:21:29;;;;;;;;;;;26.80;99.90;;;;;;4972770;28;19922;-72
2023/12/18 09:23:56;;;;;;;;;;;26.80;99.90;;;;;;4969215;28;20383;-74
2023/12/18 09:26:22;;;;;;;;;;;26.80;99.90;;;;;;4968661;28;20420;-70
2023/12/18 09:28:49;;;;;;;;;;;26.70;99.90;;;;;;4990611;28;19949;-71
2023/12/18 09:31:16;;;;;;;;;;;26.70;99.90;;;;;;4956142;28;19919;-72
2023/12/18 09:33:44;;;;;;;;;;;26.60;99.90;;;;;;4954877;28;19910;-71
2023/12/18 09:36:11;;;;;;;;;;;26.60;99.90;;;;;;4971063;28;19914;-71
2023/12/18 09:38:39;;;;;;;;;;;26.60;99.90;;;;;;4963750;28;20016;-71
2023/12/18 09:41:07;;;;;;;;;;;26.60;99.90;;;;;;4973133;28;19923;-74
2023/12/18 09:43:35;;;;;;;;;;;26.60;99.90;;;;;;4965187;28;19956;-71
2023/12/18 09:46:02;;;;;;;;;;;26.60;99.90;;;;;;4972971;28;19936;-70
2023/12/18 09:48:29;;;;;;;;;;;26.50;99.90;;;;;;4973403;28;20362;-71
2023/12/18 09:50:55;;;;;;;;;;;26.50;99.90;;;;;;4971857;28;19949;-70
2023/12/18 09:53:23;;;;;;;;;;;26.60;99.90;;;;;;4958748;28;19915;-72
2023/12/18 09:55:54;;;;;;;;;;;26.60;99.90;;;;;;4961499;28;19937;-71
2023/12/18 09:58:21;;;;;;;;;;;26.60;99.90;;;;;;4961785;28;19915;-73
2023/12/18 10:00:48;;;;;;;;;;;26.50;99.90;;;;;;4963074;28;20000;-73
2023/12/18 10:03:16;;;;;;;;;;;26.60;99.90;;;;;;4974787;28;20006;-76
2023/12/18 10:05:43;;;;;;;;;;;26.60;99.90;;;;;;4963688;28;19922;-71
2023/12/18 10:08:10;;;;;;;;;;;26.50;99.90;;;;;;4960075;28;19971;-71
2023/12/18 10:10:36;;;;;;;;;;;26.50;99.90;;;;;;4963002;28;19922;-70
2023/12/18 10:13:06;;;;;;;;;;;26.40;99.90;;;;;;4962260;28;19914;-71
2023/12/18 10:15:35;;;;;;;;;;;26.40;99.90;;;;;;4959671;28;20291;-68
2023/12/18 10:18:03;;;;;;;;;;;26.40;99.90;;;;;;4952508;28;20371;-71
2023/12/18 10:20:30;;;;;;;;;;;26.40;99.90;;;;;;4963535;28;20427;-72
2023/12/18 10:22:56;;;;;;;;;;;26.30;99.90;;;;;;4963538;28;19926;-75
2023/12/18 10:25:24;;;;;;;;;;;26.30;99.90;;;;;;4971837;28;19921;-75
2023/12/18 10:27:54;;;;;;;;;;;26.30;99.90;;;;;;4973859;28;19937;-75
2023/12/18 10:30:25;;;;;;;;;;;26.30;99.90;;;;;;4968150;28;19922;-71
2023/12/18 10:32:54;;;;;;;;;;;26.30;99.90;;;;;;4972779;28;19951;-74
2023/12/18 10:35:24;;;;;;;;;;;26.30;99.90;;;;;;4972911;28;20351;-74
2023/12/18 10:37:54;;;;;;;;;;;26.30;99.90;;;;;;4972354;28;19913;-72
2023/12/18 10:40:23;;;;;;;;;;;26.30;99.90;;;;;;4969541;28;19910;-77
2023/12/18 10:43:10;;;;;;;;;;;26.30;99.90;;;;;;4959343;28;19961;-78
2023/12/18 10:45:37;;;;;;;;;;;26.30;99.90;;;;;;4973009;28;20388;-80
2023/12/18 10:48:04;;;;;;;;;;;26.20;99.90;;;;;;4967828;28;19960;-74
2023/12/18 10:50:32;;;;;;;;;;;26.10;99.90;;;;;;4963881;28;20383;-71
2023/12/18 10:52:59;;;;;;;;;;;26.10;99.90;;;;;;4967956;28;19914;-70
2023/12/18 10:55:26;;;;;;;;;;;26.20;99.90;;;;;;4961168;28;19911;-83
2023/12/18 10:57:57;;;;;;;;;;;26.10;99.90;;;;;;4962627;28;20425;-71
2023/12/18 11:00:24;;;;;;;;;;;26.20;99.90;;;;;;4960233;28;19898;-75
2023/12/18 11:02:52;;;;;;;;;;;26.10;99.90;;;;;;4957289;28;19918;-83
2023/12/18 11:05:20;;;;;;;;;;;26.20;99.90;;;;;;4953979;28;19922;-72
2023/12/18 11:07:48;;;;;;;;;;;26.20;99.90;;;;;;4953233;28;20257;-82
2023/12/18 11:10:14;;;;;;;;;;;26.00;99.90;;;;;;4952691;28;20003;-82
2023/12/18 11:12:50;;;;;;;;;;;25.90;99.90;;;;;;4953810;28;20275;-88
2023/12/18 11:15:37;;;;;;;;;;;26.00;99.90;;;;;;4954379;28;19950;-76
2023/12/18 11:18:21;;;;;;;;;;;26.00;99.90;;;;;;4952753;28;19993;-85
2023/12/18 11:20:48;;;;;;;;;;;26.00;99.90;;;;;;4952634;28;20323;-78
2023/12/18 11:23:16;;;;;;;;;;;25.90;99.90;;;;;;4952520;28;20386;-74
2023/12/18 11:25:47;;;;;;;;;;;25.80;99.90;;;;;;4951755;28;19914;-87
2023/12/18 11:28:15;;;;;;;;;;;25.90;99.90;;;;;;4951475;28;19999;-80
2023/12/18 11:30:45;;;;;;;;;;;26.00;99.90;;;;;;4952350;28;19925;-82
2023/12/18 11:33:14;;;;;;;;;;;26.00;99.90;;;;;;4952468;28;20009;-79
2023/12/18 11:35:45;;;;;;;;;;;26.00;99.90;;;;;;4952750;28;20363;-74
2023/12/18 11:38:21;;;;;;;;;;;26.00;99.90;;;;;;4954908;28;19914;-74
2023/12/18 11:40:50;;;;;;;;;;;25.90;99.90;;;;;;4952190;28;19910;-72
2023/12/18 11:43:35;;;;;;;;;;;25.90;99.90;;;;;;4952847;28;19917;-84
2023/12/18 11:46:03;;;;;;;;;;;25.90;99.90;;;;;;4953092;28;20433;-84
2023/12/18 11:48:29;;;;;;;;;;;25.90;99.90;;;;;;4952503;28;20298;-75
2023/12/18 11:50:56;;;;;;;;;;;26.00;99.90;;;;;;4951753;28;20387;-71
2023/12/18 11:53:23;;;;;;;;;;;25.80;99.90;;;;;;4952123;28;19956;-81
2023/12/18 11:55:50;;;;;;;;;;;25.80;99.90;;;;;;4951798;28;20320;-70
2023/12/18 11:58:24;;;;;;;;;;;25.80;99.90;;;;;;4951480;28;19918;-72
2023/12/18 12:00:51;;;;;;;;;;;25.70;99.90;;;;;;4951351;28;19919;-73
2023/12/18 12:03:18;;;;;;;;;;;25.70;99.90;;;;;;4951843;28;20395;-70
2023/12/18 12:05:48;;;;;;;;;;;25.80;99.90;;;;;;4951951;28;20546;-77
2023/12/18 12:08:15;;;;;;;;;;;25.80;99.90;;;;;;4951867;28;19933;-74
2023/12/18 12:10:43;;;;;;;;;;;25.80;99.90;;;;;;4951730;28;19919;-76
2023/12/18 12:13:19;;;;;;;;;;;25.80;99.90;;;;;;4951823;28;19918;-75
2023/12/18 12:15:58;;;;;;;;;;;25.70;99.90;;;;;;4951606;28;19942;-71
2023/12/18 12:18:25;;;;;;;;;;;25.80;99.90;;;;;;4951606;28;19918;-71
2023/12/18 12:20:52;;;;;;;;;;;25.80;99.90;;;;;;4951079;28;20322;-72
2023/12/18 12:23:19;;;;;;;;;;;25.80;99.90;;;;;;4969326;28;20008;-77
2023/12/18 12:25:49;;;;;;;;;;;25.80;99.90;;;;;;4970981;28;20000;-69
2023/12/18 12:28:15;;;;;;;;;;;25.80;99.90;;;;;;4971100;28;20441;-72
2023/12/18 12:30:46;;;;;;;;;;;25.80;99.90;;;;;;4970356;28;19922;-73
2023/12/18 12:33:13;;;;;;;;;;;25.80;99.90;;;;;;4970750;28;19963;-77
2023/12/18 12:35:40;;;;;;;;;;;25.80;99.90;;;;;;4970623;28;19940;-72
2023/12/18 12:38:07;;;;;;;;;;;25.80;99.90;;;;;;4970880;28;19917;-72
2023/12/18 12:40:52;;;;;;;;;;;25.80;99.90;;;;;;4969142;28;19957;-72
2023/12/18 12:43:18;;;;;;;;;;;25.90;99.90;;;;;;4974162;28;19917;-74
2023/12/18 12:45:45;;;;;;;;;;;25.80;99.90;;;;;;4974305;28;19910;-71
2023/12/18 12:48:12;;;;;;;;;;;25.90;99.90;;;;;;4974257;28;19910;-72
2023/12/18 12:50:40;;;;;;;;;;;25.90;99.90;;;;;;4973949;28;19925;-76
2023/12/18 12:53:09;;;;;;;;;;;25.90;99.90;;;;;;4973857;28;19910;-76
2023/12/18 12:55:37;;;;;;;;;;;25.90;99.90;;;;;;4974027;28;19911;-74
2023/12/18 12:58:04;;;;;;;;;;;25.90;99.90;;;;;;4974037;28;19997;-74
2023/12/18 13:00:31;;;;;;;;;;;26.00;99.90;;;;;;4972631;28;20362;-71
2023/12/18 13:02:57;;;;;;;;;;;26.00;99.90;;;;;;4956002;28;19956;-75
2023/12/18 13:05:25;;;;;;;;;;;26.00;99.90;;;;;;4973804;28;20001;-73
2023/12/18 13:07:52;;;;;;;;;;;26.00;99.90;;;;;;4973907;28;20021;-71
2023/12/18 13:10:18;;;;;;;;;;;26.00;99.90;;;;;;4973647;28;19923;-72
2023/12/18 13:12:45;;;;;;;;;;;26.00;99.90;;;;;;4973716;28;19936;-75
2023/12/18 13:15:12;;;;;;;;;;;26.10;99.90;;;;;;4973869;28;19967;-74
2023/12/18 13:17:38;;;;;;;;;;;26.10;99.90;;;;;;4973735;28;19914;-73
2023/12/18 13:20:07;;;;;;;;;;;26.20;99.90;;;;;;4973516;28;19914;-75
2023/12/18 13:22:34;;;;;;;;;;;26.10;99.90;;;;;;4973563;28;19967;-73
2023/12/18 13:25:01;;;;;;;;;;;26.10;99.90;;;;;;4973949;28;19910;-72
2023/12/18 13:27:27;;;;;;;;;;;26.10;99.90;;;;;;4973341;28;19915;-74
2023/12/18 13:29:54;;;;;;;;;;;26.10;99.90;;;;;;4973138;28;20382;-71
2023/12/18 13:32:21;;;;;;;;;;;26.10;99.90;;;;;;4973472;28;20024;-78
2023/12/18 13:34:48;;;;;;;;;;;26.10;99.90;;;;;;4973482;28;20019;-77
2023/12/18 13:37:15;;;;;;;;;;;26.10;99.90;;;;;;4973510;28;20362;-72
2023/12/18 13:39:41;;;;;;;;;;;26.10;99.90;;;;;;4973398;28;20363;-75
2023/12/18 13:42:09;;;;;;;;;;;26.20;99.90;;;;;;4972937;28;19910;-75
2023/12/18 13:44:35;;;;;;;;;;;26.20;99.90;;;;;;4973411;28;19963;-72
2023/12/18 13:47:02;;;;;;;;;;;26.20;99.90;;;;;;4973186;28;20267;-76
2023/12/18 13:49:28;;;;;;;;;;;26.00;99.90;;;;;;4968825;28;20359;-75
2023/12/18 13:51:55;;;;;;;;;;;26.10;99.90;;;;;;4970138;28;19924;-70
2023/12/18 13:54:22;;;;;;;;;;;26.00;99.90;;;;;;4972144;28;19910;-74
2023/12/18 13:56:48;;;;;;;;;;;26.00;99.90;;;;;;4961066;28;19923;-78
2023/12/18 13:59:15;;;;;;;;;;;26.00;99.90;;;;;;4973254;28;19971;-73
2023/12/18 14:01:42;;;;;;;;;;;26.00;99.90;;;;;;4964951;28;19937;-70
2023/12/18 14:04:09;;;;;;;;;;;26.00;99.90;;;;;;4954585;28;20342;-71
2023/12/18 14:06:36;;;;;;;;;;;26.00;99.90;;;;;;4953338;28;20128;-70
2023/12/18 14:09:04;;;;;;;;;;;26.00;99.90;;;;;;4953486;28;19956;-71
2023/12/18 14:11:31;;;;;;;;;;;26.00;99.90;;;;;;4958577;28;20363;-71
2023/12/18 14:13:58;;;;;;;;;;;26.00;99.90;;;;;;4972077;28;19959;-70
2023/12/18 14:16:24;;;;;;;;;;;25.90;99.90;;;;;;4972617;28;19917;-72